sensor_id;sensor_type;location;lat;lon;timestamp;P1;durP1;ratioP1;P2;durP2;ratioP2
46363;SDS011;32071;49.036;9.344;2023-06-05T00:00:42;3.17;;;2.87;;
46363;SDS011;32071;49.036;9.344;2023-06-05T00:03:07;3.30;;;2.73;;
46363;SDS011;32071;49.036;9.344;2023-06-05T00:05:33;4.87;;;3.20;;
46363;SDS011;32071;49.036;9.344;2023-06-05T00:07:58;3.80;;;2.63;;
46363;SDS011;32071;49.036;9.344;2023-06-05T00:10:24;5.97;;;3.00;;
46363;SDS011;32071;49.036;9.344;2023-06-05T00:12:49;3.80;;;3.40;;
46363;SDS011;32071;49.036;9.344;2023-06-05T00:15:15;4.80;;;3.57;;
46363;SDS011;32071;49.036;9.344;2023-06-05T00:17:41;3.33;;;3.03;;
46363;SDS011;32071;49.036;9.344;2023-06-05T00:20:07;4.97;;;3.30;;
46363;SDS011;32071;49.036;9.344;2023-06-05T00:22:34;3.80;;;3.10;;
46363;SDS011;32071;49.036;9.344;2023-06-05T00:25:00;3.23;;;3.00;;
46363;SDS011;32071;49.036;9.344;2023-06-05T00:27:27;4.10;;;3.50;;
46363;SDS011;32071;49.036;9.344;2023-06-05T00:29:53;4.37;;;2.83;;
46363;SDS011;32071;49.036;9.344;2023-06-05T00:32:19;3.70;;;3.40;;
46363;SDS011;32071;49.036;9.344;2023-06-05T00:34:44;3.77;;;3.23;;
46363;SDS011;32071;49.036;9.344;2023-06-05T00:37:11;5.53;;;3.10;;
46363;SDS011;32071;49.036;9.344;2023-06-05T00:39:40;3.30;;;3.00;;
46363;SDS011;32071;49.036;9.344;2023-06-05T00:42:06;3.87;;;3.40;;
46363;SDS011;32071;49.036;9.344;2023-06-05T00:44:33;3.20;;;2.90;;
46363;SDS011;32071;49.036;9.344;2023-06-05T00:46:59;3.47;;;3.17;;
46363;SDS011;32071;49.036;9.344;2023-06-05T00:49:26;4.27;;;2.77;;
46363;SDS011;32071;49.036;9.344;2023-06-05T00:51:52;4.57;;;3.00;;
46363;SDS011;32071;49.036;9.344;2023-06-05T00:54:18;5.27;;;3.13;;
46363;SDS011;32071;49.036;9.344;2023-06-05T00:56:46;3.40;;;3.07;;
46363;SDS011;32071;49.036;9.344;2023-06-05T00:59:12;4.00;;;3.23;;
46363;SDS011;32071;49.036;9.344;2023-06-05T01:01:39;3.43;;;3.13;;
46363;SDS011;32071;49.036;9.344;2023-06-05T01:04:05;3.63;;;3.30;;
46363;SDS011;32071;49.036;9.344;2023-06-05T01:06:31;4.50;;;2.93;;
46363;SDS011;32071;49.036;9.344;2023-06-05T01:08:59;3.57;;;3.27;;
46363;SDS011;32071;49.036;9.344;2023-06-05T01:14:00;4.20;;;3.17;;
46363;SDS011;32071;49.036;9.344;2023-06-05T01:16:37;3.57;;;3.27;;
46363;SDS011;32071;49.036;9.344;2023-06-05T01:19:04;4.00;;;3.03;;
46363;SDS011;32071;49.036;9.344;2023-06-05T01:21:30;6.13;;;3.20;;
46363;SDS011;32071;49.036;9.344;2023-06-05T01:23:57;3.73;;;3.40;;
46363;SDS011;32071;49.036;9.344;2023-06-05T01:26:25;5.30;;;3.70;;
46363;SDS011;32071;49.036;9.344;2023-06-05T01:28:58;6.20;;;3.47;;
46363;SDS011;32071;49.036;9.344;2023-06-05T01:31:26;3.60;;;3.17;;
46363;SDS011;32071;49.036;9.344;2023-06-05T01:34:03;4.50;;;3.50;;
46363;SDS011;32071;49.036;9.344;2023-06-05T01:36:32;4.60;;;3.67;;
46363;SDS011;32071;49.036;9.344;2023-06-05T01:38:59;3.53;;;3.10;;
46363;SDS011;32071;49.036;9.344;2023-06-05T01:41:26;4.53;;;3.53;;
46363;SDS011;32071;49.036;9.344;2023-06-05T01:43:52;4.07;;;3.30;;
46363;SDS011;32071;49.036;9.344;2023-06-05T01:46:18;4.33;;;3.37;;
46363;SDS011;32071;49.036;9.344;2023-06-05T01:48:45;4.03;;;3.67;;
46363;SDS011;32071;49.036;9.344;2023-06-05T01:51:12;4.17;;;3.37;;
46363;SDS011;32071;49.036;9.344;2023-06-05T01:53:37;5.50;;;3.10;;
46363;SDS011;32071;49.036;9.344;2023-06-05T01:56:03;4.40;;;3.50;;
46363;SDS011;32071;49.036;9.344;2023-06-05T01:58:32;3.83;;;3.53;;
46363;SDS011;32071;49.036;9.344;2023-06-05T02:00:57;5.50;;;3.80;;
46363;SDS011;32071;49.036;9.344;2023-06-05T02:03:23;4.20;;;3.80;;
46363;SDS011;32071;49.036;9.344;2023-06-05T02:05:49;3.83;;;3.53;;
46363;SDS011;32071;49.036;9.344;2023-06-05T02:08:16;4.03;;;3.47;;
46363;SDS011;32071;49.036;9.344;2023-06-05T02:10:47;4.13;;;3.60;;
46363;SDS011;32071;49.036;9.344;2023-06-05T02:13:17;4.43;;;3.33;;
46363;SDS011;32071;49.036;9.344;2023-06-05T02:15:44;5.50;;;3.40;;
46363;SDS011;32071;49.036;9.344;2023-06-05T02:18:10;4.13;;;3.03;;
46363;SDS011;32071;49.036;9.344;2023-06-05T02:20:36;4.00;;;3.30;;
46363;SDS011;32071;49.036;9.344;2023-06-05T02:23:02;6.63;;;4.03;;
46363;SDS011;32071;49.036;9.344;2023-06-05T02:25:30;3.77;;;3.27;;
46363;SDS011;32071;49.036;9.344;2023-06-05T02:27:55;3.70;;;3.27;;
46363;SDS011;32071;49.036;9.344;2023-06-05T02:30:21;3.47;;;3.17;;
46363;SDS011;32071;49.036;9.344;2023-06-05T02:32:47;4.30;;;3.70;;
46363;SDS011;32071;49.036;9.344;2023-06-05T02:35:13;3.37;;;3.07;;
46363;SDS011;32071;49.036;9.344;2023-06-05T02:37:39;4.90;;;3.37;;
46363;SDS011;32071;49.036;9.344;2023-06-05T02:40:10;5.87;;;3.97;;
46363;SDS011;32071;49.036;9.344;2023-06-05T02:42:37;4.03;;;3.50;;
46363;SDS011;32071;49.036;9.344;2023-06-05T02:45:03;4.00;;;3.33;;
46363;SDS011;32071;49.036;9.344;2023-06-05T02:47:30;3.70;;;3.27;;
46363;SDS011;32071;49.036;9.344;2023-06-05T02:49:56;5.37;;;3.47;;
46363;SDS011;32071;49.036;9.344;2023-06-05T02:52:22;5.00;;;3.83;;
46363;SDS011;32071;49.036;9.344;2023-06-05T02:54:47;5.03;;;3.63;;
46363;SDS011;32071;49.036;9.344;2023-06-05T02:57:13;4.80;;;3.90;;
46363;SDS011;32071;49.036;9.344;2023-06-05T02:59:40;7.30;;;3.33;;
46363;SDS011;32071;49.036;9.344;2023-06-05T03:02:06;4.13;;;3.43;;
46363;SDS011;32071;49.036;9.344;2023-06-05T03:04:31;3.80;;;3.40;;
46363;SDS011;32071;49.036;9.344;2023-06-05T03:06:57;6.80;;;3.60;;
46363;SDS011;32071;49.036;9.344;2023-06-05T03:09:29;5.33;;;3.70;;
46363;SDS011;32071;49.036;9.344;2023-06-05T03:11:55;4.57;;;3.13;;
46363;SDS011;32071;49.036;9.344;2023-06-05T03:14:21;3.90;;;3.40;;
46363;SDS011;32071;49.036;9.344;2023-06-05T03:16:46;4.97;;;3.63;;
46363;SDS011;32071;49.036;9.344;2023-06-05T03:19:12;3.63;;;3.33;;
46363;SDS011;32071;49.036;9.344;2023-06-05T03:21:38;4.47;;;3.27;;
46363;SDS011;32071;49.036;9.344;2023-06-05T03:24:10;4.10;;;3.70;;
46363;SDS011;32071;49.036;9.344;2023-06-05T03:26:39;4.03;;;3.70;;
46363;SDS011;32071;49.036;9.344;2023-06-05T03:29:06;4.97;;;3.30;;
46363;SDS011;32071;49.036;9.344;2023-06-05T03:31:32;4.33;;;3.83;;
46363;SDS011;32071;49.036;9.344;2023-06-05T03:33:57;4.63;;;3.57;;
46363;SDS011;32071;49.036;9.344;2023-06-05T03:36:24;5.10;;;3.77;;
46363;SDS011;32071;49.036;9.344;2023-06-05T03:38:51;6.13;;;4.40;;
46363;SDS011;32071;49.036;9.344;2023-06-05T03:41:16;4.10;;;3.70;;
46363;SDS011;32071;49.036;9.344;2023-06-05T03:43:42;4.67;;;3.80;;
46363;SDS011;32071;49.036;9.344;2023-06-05T03:46:07;5.00;;;3.87;;
46363;SDS011;32071;49.036;9.344;2023-06-05T03:48:35;4.67;;;4.17;;
46363;SDS011;32071;49.036;9.344;2023-06-05T03:51:00;4.90;;;3.70;;
46363;SDS011;32071;49.036;9.344;2023-06-05T03:53:26;5.50;;;3.77;;
46363;SDS011;32071;49.036;9.344;2023-06-05T03:55:54;3.87;;;3.53;;
46363;SDS011;32071;49.036;9.344;2023-06-05T03:58:21;4.60;;;3.87;;
46363;SDS011;32071;49.036;9.344;2023-06-05T04:00:48;4.10;;;3.40;;
46363;SDS011;32071;49.036;9.344;2023-06-05T04:03:14;5.17;;;3.33;;
46363;SDS011;32071;49.036;9.344;2023-06-05T04:05:40;5.73;;;3.57;;
46363;SDS011;32071;49.036;9.344;2023-06-05T04:08:09;4.00;;;3.60;;
46363;SDS011;32071;49.036;9.344;2023-06-05T04:10:36;5.00;;;3.53;;
46363;SDS011;32071;49.036;9.344;2023-06-05T04:13:02;6.47;;;3.67;;
46363;SDS011;32071;49.036;9.344;2023-06-05T04:15:31;6.20;;;4.00;;
46363;SDS011;32071;49.036;9.344;2023-06-05T04:17:56;6.53;;;3.60;;
46363;SDS011;32071;49.036;9.344;2023-06-05T04:20:22;9.10;;;4.67;;
46363;SDS011;32071;49.036;9.344;2023-06-05T04:22:47;4.13;;;3.73;;
46363;SDS011;32071;49.036;9.344;2023-06-05T04:25:13;4.53;;;3.90;;
46363;SDS011;32071;49.036;9.344;2023-06-05T04:27:40;4.40;;;4.00;;
46363;SDS011;32071;49.036;9.344;2023-06-05T04:30:09;4.37;;;3.77;;
46363;SDS011;32071;49.036;9.344;2023-06-05T04:32:36;4.23;;;3.50;;
46363;SDS011;32071;49.036;9.344;2023-06-05T04:35:02;4.90;;;3.90;;
46363;SDS011;32071;49.036;9.344;2023-06-05T04:37:28;4.60;;;3.70;;
46363;SDS011;32071;49.036;9.344;2023-06-05T04:39:54;6.50;;;4.17;;
46363;SDS011;32071;49.036;9.344;2023-06-05T04:42:20;4.00;;;3.60;;
46363;SDS011;32071;49.036;9.344;2023-06-05T04:44:53;3.83;;;3.50;;
46363;SDS011;32071;49.036;9.344;2023-06-05T04:47:23;3.80;;;3.40;;
46363;SDS011;32071;49.036;9.344;2023-06-05T04:49:49;4.17;;;3.50;;
46363;SDS011;32071;49.036;9.344;2023-06-05T04:52:17;4.53;;;3.70;;
46363;SDS011;32071;49.036;9.344;2023-06-05T04:54:42;5.83;;;4.00;;
46363;SDS011;32071;49.036;9.344;2023-06-05T04:57:09;5.40;;;3.93;;
46363;SDS011;32071;49.036;9.344;2023-06-05T04:59:35;3.80;;;3.50;;
46363;SDS011;32071;49.036;9.344;2023-06-05T05:02:01;5.47;;;3.83;;
46363;SDS011;32071;49.036;9.344;2023-06-05T05:04:27;5.50;;;3.87;;
46363;SDS011;32071;49.036;9.344;2023-06-05T05:06:53;5.67;;;3.80;;
46363;SDS011;32071;49.036;9.344;2023-06-05T05:09:18;4.13;;;3.73;;
46363;SDS011;32071;49.036;9.344;2023-06-05T05:11:44;5.77;;;4.00;;
46363;SDS011;32071;49.036;9.344;2023-06-05T05:14:09;4.10;;;3.37;;
46363;SDS011;32071;49.036;9.344;2023-06-05T05:16:35;9.87;;;4.37;;
46363;SDS011;32071;49.036;9.344;2023-06-05T05:19:01;4.77;;;3.07;;
46363;SDS011;32071;49.036;9.344;2023-06-05T05:21:26;4.50;;;3.70;;
46363;SDS011;32071;49.036;9.344;2023-06-05T05:23:52;5.57;;;4.00;;
46363;SDS011;32071;49.036;9.344;2023-06-05T05:26:17;3.60;;;3.30;;
46363;SDS011;32071;49.036;9.344;2023-06-05T05:28:43;4.93;;;3.80;;
46363;SDS011;32071;49.036;9.344;2023-06-05T05:31:08;4.83;;;3.30;;
46363;SDS011;32071;49.036;9.344;2023-06-05T05:33:34;4.63;;;3.90;;
46363;SDS011;32071;49.036;9.344;2023-06-05T05:36:00;3.93;;;3.63;;
46363;SDS011;32071;49.036;9.344;2023-06-05T05:38:26;4.47;;;4.07;;
46363;SDS011;32071;49.036;9.344;2023-06-05T05:40:51;4.60;;;3.70;;
46363;SDS011;32071;49.036;9.344;2023-06-05T05:43:17;3.83;;;3.43;;
46363;SDS011;32071;49.036;9.344;2023-06-05T05:45:43;5.00;;;4.43;;
46363;SDS011;32071;49.036;9.344;2023-06-05T05:48:08;4.77;;;3.90;;
46363;SDS011;32071;49.036;9.344;2023-06-05T05:50:34;4.17;;;3.70;;
46363;SDS011;32071;49.036;9.344;2023-06-05T05:53:00;7.83;;;3.53;;
46363;SDS011;32071;49.036;9.344;2023-06-05T05:55:26;4.67;;;3.30;;
46363;SDS011;32071;49.036;9.344;2023-06-05T05:57:52;4.23;;;3.63;;
46363;SDS011;32071;49.036;9.344;2023-06-05T06:00:17;4.13;;;3.73;;
46363;SDS011;32071;49.036;9.344;2023-06-05T06:02:43;4.13;;;3.67;;
46363;SDS011;32071;49.036;9.344;2023-06-05T06:05:09;4.07;;;3.77;;
46363;SDS011;32071;49.036;9.344;2023-06-05T06:07:36;4.77;;;4.10;;
46363;SDS011;32071;49.036;9.344;2023-06-05T06:10:02;6.70;;;3.70;;
46363;SDS011;32071;49.036;9.344;2023-06-05T06:12:28;5.40;;;4.60;;
46363;SDS011;32071;49.036;9.344;2023-06-05T06:14:54;6.23;;;3.83;;
46363;SDS011;32071;49.036;9.344;2023-06-05T06:17:20;5.63;;;3.53;;
46363;SDS011;32071;49.036;9.344;2023-06-05T06:19:45;4.30;;;3.90;;
46363;SDS011;32071;49.036;9.344;2023-06-05T06:22:12;4.53;;;4.10;;
46363;SDS011;32071;49.036;9.344;2023-06-05T06:24:41;5.83;;;4.53;;
46363;SDS011;32071;49.036;9.344;2023-06-05T06:27:07;6.40;;;3.73;;
46363;SDS011;32071;49.036;9.344;2023-06-05T06:29:36;4.50;;;4.10;;
46363;SDS011;32071;49.036;9.344;2023-06-05T06:32:11;3.97;;;3.57;;
46363;SDS011;32071;49.036;9.344;2023-06-05T06:34:36;5.00;;;3.70;;
46363;SDS011;32071;49.036;9.344;2023-06-05T06:37:02;5.53;;;3.80;;
46363;SDS011;32071;49.036;9.344;2023-06-05T06:39:28;4.50;;;3.43;;
46363;SDS011;32071;49.036;9.344;2023-06-05T06:41:54;5.40;;;3.90;;
46363;SDS011;32071;49.036;9.344;2023-06-05T06:44:20;5.73;;;3.70;;
46363;SDS011;32071;49.036;9.344;2023-06-05T06:46:47;4.40;;;3.43;;
46363;SDS011;32071;49.036;9.344;2023-06-05T06:49:12;7.83;;;4.17;;
46363;SDS011;32071;49.036;9.344;2023-06-05T06:51:38;4.90;;;3.97;;
46363;SDS011;32071;49.036;9.344;2023-06-05T06:54:03;4.80;;;4.30;;
46363;SDS011;32071;49.036;9.344;2023-06-05T06:56:29;3.90;;;3.60;;
46363;SDS011;32071;49.036;9.344;2023-06-05T06:58:55;4.47;;;3.40;;
46363;SDS011;32071;49.036;9.344;2023-06-05T07:01:21;6.90;;;3.47;;
46363;SDS011;32071;49.036;9.344;2023-06-05T07:03:47;7.23;;;4.40;;
46363;SDS011;32071;49.036;9.344;2023-06-05T07:06:12;4.70;;;3.87;;
46363;SDS011;32071;49.036;9.344;2023-06-05T07:08:39;4.20;;;3.77;;
46363;SDS011;32071;49.036;9.344;2023-06-05T07:11:04;4.60;;;4.03;;
46363;SDS011;32071;49.036;9.344;2023-06-05T07:13:30;4.80;;;4.17;;
46363;SDS011;32071;49.036;9.344;2023-06-05T07:15:55;4.97;;;3.70;;
46363;SDS011;32071;49.036;9.344;2023-06-05T07:18:21;3.87;;;3.57;;
46363;SDS011;32071;49.036;9.344;2023-06-05T07:20:47;4.37;;;3.73;;
46363;SDS011;32071;49.036;9.344;2023-06-05T07:23:13;4.57;;;4.00;;
46363;SDS011;32071;49.036;9.344;2023-06-05T07:25:40;4.53;;;3.87;;
46363;SDS011;32071;49.036;9.344;2023-06-05T07:28:07;6.17;;;5.17;;
46363;SDS011;32071;49.036;9.344;2023-06-05T07:30:34;3.77;;;3.47;;
46363;SDS011;32071;49.036;9.344;2023-06-05T07:33:00;5.80;;;4.47;;
46363;SDS011;32071;49.036;9.344;2023-06-05T07:35:26;4.93;;;4.40;;
46363;SDS011;32071;49.036;9.344;2023-06-05T07:37:51;4.63;;;4.10;;
46363;SDS011;32071;49.036;9.344;2023-06-05T07:40:17;6.33;;;4.60;;
46363;SDS011;32071;49.036;9.344;2023-06-05T07:42:44;7.70;;;4.50;;
46363;SDS011;32071;49.036;9.344;2023-06-05T07:45:09;4.90;;;4.50;;
46363;SDS011;32071;49.036;9.344;2023-06-05T07:47:35;6.70;;;4.33;;
46363;SDS011;32071;49.036;9.344;2023-06-05T07:50:01;4.63;;;4.23;;
46363;SDS011;32071;49.036;9.344;2023-06-05T07:52:30;5.43;;;4.57;;
46363;SDS011;32071;49.036;9.344;2023-06-05T07:54:56;4.70;;;4.10;;
46363;SDS011;32071;49.036;9.344;2023-06-05T07:57:22;5.00;;;4.50;;
46363;SDS011;32071;49.036;9.344;2023-06-05T07:59:52;7.83;;;4.20;;
46363;SDS011;32071;49.036;9.344;2023-06-05T08:02:19;4.80;;;4.30;;
46363;SDS011;32071;49.036;9.344;2023-06-05T08:04:44;4.50;;;4.07;;
46363;SDS011;32071;49.036;9.344;2023-06-05T08:07:10;7.53;;;3.90;;
46363;SDS011;32071;49.036;9.344;2023-06-05T08:09:36;6.50;;;4.33;;
46363;SDS011;32071;49.036;9.344;2023-06-05T08:12:03;4.37;;;3.83;;
46363;SDS011;32071;49.036;9.344;2023-06-05T08:14:29;5.33;;;3.97;;
46363;SDS011;32071;49.036;9.344;2023-06-05T08:16:55;4.27;;;3.87;;
46363;SDS011;32071;49.036;9.344;2023-06-05T08:19:21;6.10;;;4.00;;
46363;SDS011;32071;49.036;9.344;2023-06-05T08:21:49;5.50;;;4.87;;
46363;SDS011;32071;49.036;9.344;2023-06-05T08:24:17;4.53;;;4.10;;
46363;SDS011;32071;49.036;9.344;2023-06-05T08:26:42;4.80;;;4.40;;
46363;SDS011;32071;49.036;9.344;2023-06-05T08:29:08;7.00;;;4.83;;
46363;SDS011;32071;49.036;9.344;2023-06-05T08:31:33;5.67;;;5.13;;
46363;SDS011;32071;49.036;9.344;2023-06-05T08:34:01;7.90;;;5.03;;
46363;SDS011;32071;49.036;9.344;2023-06-05T08:36:27;6.13;;;5.63;;
46363;SDS011;32071;49.036;9.344;2023-06-05T08:38:53;5.50;;;5.00;;
46363;SDS011;32071;49.036;9.344;2023-06-05T08:41:19;5.80;;;5.13;;
46363;SDS011;32071;49.036;9.344;2023-06-05T08:43:44;7.50;;;6.70;;
46363;SDS011;32071;49.036;9.344;2023-06-05T08:46:10;6.70;;;5.80;;
46363;SDS011;32071;49.036;9.344;2023-06-05T08:48:44;9.50;;;5.40;;
46363;SDS011;32071;49.036;9.344;2023-06-05T08:51:11;10.00;;;5.50;;
46363;SDS011;32071;49.036;9.344;2023-06-05T08:53:41;5.40;;;5.00;;
46363;SDS011;32071;49.036;9.344;2023-06-05T08:56:10;6.23;;;5.50;;
46363;SDS011;32071;49.036;9.344;2023-06-05T08:58:36;6.30;;;5.47;;
46363;SDS011;32071;49.036;9.344;2023-06-05T09:01:02;7.87;;;5.07;;
46363;SDS011;32071;49.036;9.344;2023-06-05T09:03:28;6.00;;;5.40;;
46363;SDS011;32071;49.036;9.344;2023-06-05T09:05:54;6.70;;;6.07;;
46363;SDS011;32071;49.036;9.344;2023-06-05T09:08:27;7.30;;;5.07;;
46363;SDS011;32071;49.036;9.344;2023-06-05T09:13:48;6.73;;;6.00;;
46363;SDS011;32071;49.036;9.344;2023-06-05T09:16:15;7.07;;;5.90;;
46363;SDS011;32071;49.036;9.344;2023-06-05T09:18:52;7.50;;;6.10;;
46363;SDS011;32071;49.036;9.344;2023-06-05T09:21:18;8.00;;;6.57;;
46363;SDS011;32071;49.036;9.344;2023-06-05T09:23:44;6.90;;;6.20;;
46363;SDS011;32071;49.036;9.344;2023-06-05T09:26:10;9.17;;;6.77;;
46363;SDS011;32071;49.036;9.344;2023-06-05T09:28:37;6.60;;;6.00;;
46363;SDS011;32071;49.036;9.344;2023-06-05T09:31:25;7.50;;;6.13;;
46363;SDS011;32071;49.036;9.344;2023-06-05T09:33:55;6.13;;;4.70;;
46363;SDS011;32071;49.036;9.344;2023-06-05T09:36:20;5.77;;;4.50;;
46363;SDS011;32071;49.036;9.344;2023-06-05T09:38:46;6.77;;;5.20;;
46363;SDS011;32071;49.036;9.344;2023-06-05T09:41:13;6.20;;;4.67;;
46363;SDS011;32071;49.036;9.344;2023-06-05T09:43:45;4.90;;;4.50;;
46363;SDS011;32071;49.036;9.344;2023-06-05T09:46:14;11.07;;;4.93;;
46363;SDS011;32071;49.036;9.344;2023-06-05T09:48:41;6.87;;;5.07;;
46363;SDS011;32071;49.036;9.344;2023-06-05T09:51:12;6.60;;;5.40;;
46363;SDS011;32071;49.036;9.344;2023-06-05T09:53:41;5.27;;;4.87;;
46363;SDS011;32071;49.036;9.344;2023-06-05T09:56:15;5.70;;;5.20;;
46363;SDS011;32071;49.036;9.344;2023-06-05T09:58:43;7.20;;;5.20;;
46363;SDS011;32071;49.036;9.344;2023-06-05T10:01:09;4.97;;;4.57;;
46363;SDS011;32071;49.036;9.344;2023-06-05T10:03:37;6.33;;;5.30;;
46363;SDS011;32071;49.036;9.344;2023-06-05T10:06:05;5.43;;;4.93;;
46363;SDS011;32071;49.036;9.344;2023-06-05T10:08:32;7.10;;;5.03;;
46363;SDS011;32071;49.036;9.344;2023-06-05T10:10:58;5.80;;;5.17;;
46363;SDS011;32071;49.036;9.344;2023-06-05T10:13:26;5.67;;;5.00;;
46363;SDS011;32071;49.036;9.344;2023-06-05T10:15:53;5.23;;;4.80;;
46363;SDS011;32071;49.036;9.344;2023-06-05T10:18:20;5.43;;;4.93;;
46363;SDS011;32071;49.036;9.344;2023-06-05T10:20:47;5.53;;;4.93;;
46363;SDS011;32071;49.036;9.344;2023-06-05T10:23:16;5.03;;;4.50;;
46363;SDS011;32071;49.036;9.344;2023-06-05T10:25:44;9.70;;;5.50;;
46363;SDS011;32071;49.036;9.344;2023-06-05T10:30:54;6.00;;;4.80;;
46363;SDS011;32071;49.036;9.344;2023-06-05T10:39:13;6.10;;;4.73;;
46363;SDS011;32071;49.036;9.344;2023-06-05T10:41:39;6.87;;;4.70;;
46363;SDS011;32071;49.036;9.344;2023-06-05T10:44:05;5.90;;;5.40;;
46363;SDS011;32071;49.036;9.344;2023-06-05T10:46:34;7.67;;;5.97;;
46363;SDS011;32071;49.036;9.344;2023-06-05T10:51:33;7.30;;;5.43;;
46363;SDS011;32071;49.036;9.344;2023-06-05T10:54:06;5.70;;;5.17;;
46363;SDS011;32071;49.036;9.344;2023-06-05T10:59:20;5.63;;;5.10;;
46363;SDS011;32071;49.036;9.344;2023-06-05T11:02:35;5.60;;;5.20;;
46363;SDS011;32071;49.036;9.344;2023-06-05T11:17:33;7.03;;;5.50;;
46363;SDS011;32071;49.036;9.344;2023-06-05T11:20:00;6.57;;;5.60;;
46363;SDS011;32071;49.036;9.344;2023-06-05T11:27:47;6.07;;;5.47;;
46363;SDS011;32071;49.036;9.344;2023-06-05T11:30:18;6.40;;;5.80;;
46363;SDS011;32071;49.036;9.344;2023-06-05T11:32:46;5.80;;;5.30;;
46363;SDS011;32071;49.036;9.344;2023-06-05T11:35:12;6.33;;;5.73;;
46363;SDS011;32071;49.036;9.344;2023-06-05T11:37:38;6.47;;;5.87;;
46363;SDS011;32071;49.036;9.344;2023-06-05T11:40:07;6.53;;;5.90;;
46363;SDS011;32071;49.036;9.344;2023-06-05T11:42:36;6.90;;;6.17;;
46363;SDS011;32071;49.036;9.344;2023-06-05T11:45:12;6.23;;;5.63;;
46363;SDS011;32071;49.036;9.344;2023-06-05T11:47:38;7.40;;;5.90;;
46363;SDS011;32071;49.036;9.344;2023-06-05T11:50:10;9.07;;;5.97;;
46363;SDS011;32071;49.036;9.344;2023-06-05T11:52:37;6.63;;;6.10;;
46363;SDS011;32071;49.036;9.344;2023-06-05T11:55:16;6.10;;;5.60;;
46363;SDS011;32071;49.036;9.344;2023-06-05T11:57:47;6.20;;;5.70;;
46363;SDS011;32071;49.036;9.344;2023-06-05T12:00:13;6.83;;;6.17;;
46363;SDS011;32071;49.036;9.344;2023-06-05T12:02:41;5.97;;;5.47;;
46363;SDS011;32071;49.036;9.344;2023-06-05T12:05:08;6.70;;;6.10;;
46363;SDS011;32071;49.036;9.344;2023-06-05T12:07:34;9.50;;;6.03;;
46363;SDS011;32071;49.036;9.344;2023-06-05T12:10:06;6.93;;;5.60;;
46363;SDS011;32071;49.036;9.344;2023-06-05T12:12:33;6.33;;;5.83;;
46363;SDS011;32071;49.036;9.344;2023-06-05T12:17:49;6.23;;;5.73;;
46363;SDS011;32071;49.036;9.344;2023-06-05T12:20:16;6.27;;;5.77;;
46363;SDS011;32071;49.036;9.344;2023-06-05T12:22:42;6.20;;;5.60;;
46363;SDS011;32071;49.036;9.344;2023-06-05T12:25:41;6.33;;;5.43;;
46363;SDS011;32071;49.036;9.344;2023-06-05T12:28:00;5.90;;;5.40;;
46363;SDS011;32071;49.036;9.344;2023-06-05T12:30:26;8.73;;;6.37;;
46363;SDS011;32071;49.036;9.344;2023-06-05T12:33:05;7.70;;;6.33;;
46363;SDS011;32071;49.036;9.344;2023-06-05T12:35:30;7.23;;;6.50;;
46363;SDS011;32071;49.036;9.344;2023-06-05T12:37:59;8.13;;;5.90;;
46363;SDS011;32071;49.036;9.344;2023-06-05T12:40:25;6.10;;;5.50;;
46363;SDS011;32071;49.036;9.344;2023-06-05T12:42:50;7.60;;;5.60;;
46363;SDS011;32071;49.036;9.344;2023-06-05T12:45:16;6.60;;;6.10;;
46363;SDS011;32071;49.036;9.344;2023-06-05T12:47:42;6.30;;;5.80;;
46363;SDS011;32071;49.036;9.344;2023-06-05T12:50:09;5.80;;;5.30;;
46363;SDS011;32071;49.036;9.344;2023-06-05T12:52:39;6.23;;;5.73;;
46363;SDS011;32071;49.036;9.344;2023-06-05T12:55:05;9.30;;;5.93;;
46363;SDS011;32071;49.036;9.344;2023-06-05T12:57:32;6.33;;;5.73;;
46363;SDS011;32071;49.036;9.344;2023-06-05T12:59:59;6.13;;;5.63;;
46363;SDS011;32071;49.036;9.344;2023-06-05T13:02:35;9.03;;;5.90;;
46363;SDS011;32071;49.036;9.344;2023-06-05T13:05:01;5.80;;;5.30;;
46363;SDS011;32071;49.036;9.344;2023-06-05T13:07:28;6.90;;;6.00;;
46363;SDS011;32071;49.036;9.344;2023-06-05T13:09:54;6.40;;;5.33;;
46363;SDS011;32071;49.036;9.344;2023-06-05T13:12:20;6.13;;;5.53;;
46363;SDS011;32071;49.036;9.344;2023-06-05T13:14:46;5.13;;;4.73;;
46363;SDS011;32071;49.036;9.344;2023-06-05T13:17:12;5.80;;;5.30;;
46363;SDS011;32071;49.036;9.344;2023-06-05T13:19:38;5.43;;;5.03;;
46363;SDS011;32071;49.036;9.344;2023-06-05T13:22:03;5.50;;;5.10;;
46363;SDS011;32071;49.036;9.344;2023-06-05T13:24:29;5.50;;;5.10;;
46363;SDS011;32071;49.036;9.344;2023-06-05T13:26:55;6.40;;;5.90;;
46363;SDS011;32071;49.036;9.344;2023-06-05T13:29:21;5.53;;;5.13;;
46363;SDS011;32071;49.036;9.344;2023-06-05T13:31:46;7.67;;;5.17;;
46363;SDS011;32071;49.036;9.344;2023-06-05T13:34:12;5.93;;;5.43;;
46363;SDS011;32071;49.036;9.344;2023-06-05T13:36:38;5.70;;;5.10;;
46363;SDS011;32071;49.036;9.344;2023-06-05T13:39:03;6.37;;;5.87;;
46363;SDS011;32071;49.036;9.344;2023-06-05T13:41:29;6.13;;;5.23;;
46363;SDS011;32071;49.036;9.344;2023-06-05T13:43:55;7.20;;;5.37;;
46363;SDS011;32071;49.036;9.344;2023-06-05T13:46:22;5.37;;;4.77;;
46363;SDS011;32071;49.036;9.344;2023-06-05T13:48:48;5.17;;;4.77;;
46363;SDS011;32071;49.036;9.344;2023-06-05T13:51:14;5.60;;;5.10;;
46363;SDS011;32071;49.036;9.344;2023-06-05T13:53:39;5.40;;;5.00;;
46363;SDS011;32071;49.036;9.344;2023-06-05T13:56:05;5.43;;;4.93;;
46363;SDS011;32071;49.036;9.344;2023-06-05T13:58:31;5.50;;;5.10;;
46363;SDS011;32071;49.036;9.344;2023-06-05T14:00:57;5.50;;;5.00;;
46363;SDS011;32071;49.036;9.344;2023-06-05T14:03:23;5.13;;;4.77;;
46363;SDS011;32071;49.036;9.344;2023-06-05T14:05:49;5.13;;;4.70;;
46363;SDS011;32071;49.036;9.344;2023-06-05T14:08:15;6.00;;;5.57;;
46363;SDS011;32071;49.036;9.344;2023-06-05T14:10:41;5.80;;;5.40;;
46363;SDS011;32071;49.036;9.344;2023-06-05T14:13:06;5.67;;;5.10;;
46363;SDS011;32071;49.036;9.344;2023-06-05T14:15:32;5.80;;;5.30;;
46363;SDS011;32071;49.036;9.344;2023-06-05T14:18:00;6.10;;;5.60;;
46363;SDS011;32071;49.036;9.344;2023-06-05T14:20:27;5.50;;;5.03;;
46363;SDS011;32071;49.036;9.344;2023-06-05T14:22:54;5.87;;;5.37;;
46363;SDS011;32071;49.036;9.344;2023-06-05T14:25:21;5.97;;;5.33;;
46363;SDS011;32071;49.036;9.344;2023-06-05T14:27:47;6.00;;;5.50;;
46363;SDS011;32071;49.036;9.344;2023-06-05T14:30:12;6.27;;;5.77;;
46363;SDS011;32071;49.036;9.344;2023-06-05T14:32:38;4.80;;;4.50;;
46363;SDS011;32071;49.036;9.344;2023-06-05T14:35:04;6.27;;;5.80;;
46363;SDS011;32071;49.036;9.344;2023-06-05T14:37:30;5.67;;;5.17;;
46363;SDS011;32071;49.036;9.344;2023-06-05T14:39:55;4.67;;;4.37;;
46363;SDS011;32071;49.036;9.344;2023-06-05T14:42:21;5.20;;;4.70;;
46363;SDS011;32071;49.036;9.344;2023-06-05T14:44:48;5.13;;;4.70;;
46363;SDS011;32071;49.036;9.344;2023-06-05T14:47:14;10.70;;;5.27;;
46363;SDS011;32071;49.036;9.344;2023-06-05T14:49:39;6.03;;;5.63;;
46363;SDS011;32071;49.036;9.344;2023-06-05T14:52:05;6.13;;;5.00;;
46363;SDS011;32071;49.036;9.344;2023-06-05T14:54:31;5.03;;;4.63;;
46363;SDS011;32071;49.036;9.344;2023-06-05T14:56:56;5.73;;;5.23;;
46363;SDS011;32071;49.036;9.344;2023-06-05T14:59:22;5.03;;;4.63;;
46363;SDS011;32071;49.036;9.344;2023-06-05T15:01:48;5.43;;;5.03;;
46363;SDS011;32071;49.036;9.344;2023-06-05T15:04:13;5.47;;;4.93;;
46363;SDS011;32071;49.036;9.344;2023-06-05T15:06:40;5.67;;;5.27;;
46363;SDS011;32071;49.036;9.344;2023-06-05T15:09:05;5.93;;;5.30;;
46363;SDS011;32071;49.036;9.344;2023-06-05T15:11:31;5.40;;;5.10;;
46363;SDS011;32071;49.036;9.344;2023-06-05T15:13:57;5.60;;;5.10;;
46363;SDS011;32071;49.036;9.344;2023-06-05T15:16:23;5.40;;;5.00;;
46363;SDS011;32071;49.036;9.344;2023-06-05T15:18:49;5.30;;;4.90;;
46363;SDS011;32071;49.036;9.344;2023-06-05T15:21:15;5.47;;;5.07;;
46363;SDS011;32071;49.036;9.344;2023-06-05T15:23:41;5.30;;;4.90;;
46363;SDS011;32071;49.036;9.344;2023-06-05T15:26:06;6.97;;;5.27;;